sensor_id;sensor_type;location;lat;lon;timestamp;P1;durP1;ratioP1;P2;durP2;ratioP2
29848;SDS011;16728;50.832;5.590;2024-01-15T00:03:01;39.83;;;18.73;;
29848;SDS011;16728;50.832;5.590;2024-01-15T00:06:04;41.80;;;19.65;;
29848;SDS011;16728;50.832;5.590;2024-01-15T00:09:06;37.58;;;17.63;;
29848;SDS011;16728;50.832;5.590;2024-01-15T00:12:09;38.37;;;17.50;;
29848;SDS011;16728;50.832;5.590;2024-01-15T00:15:11;37.70;;;18.63;;
29848;SDS011;16728;50.832;5.590;2024-01-15T00:18:13;45.40;;;18.67;;
29848;SDS011;16728;50.832;5.590;2024-01-15T00:21:16;38.77;;;18.57;;
29848;SDS011;16728;50.832;5.590;2024-01-15T00:24:18;41.77;;;19.60;;
29848;SDS011;16728;50.832;5.590;2024-01-15T00:27:21;42.43;;;18.57;;
29848;SDS011;16728;50.832;5.590;2024-01-15T00:30:23;42.80;;;18.88;;
29848;SDS011;16728;50.832;5.590;2024-01-15T00:33:25;41.27;;;19.00;;
29848;SDS011;16728;50.832;5.590;2024-01-15T00:36:28;35.67;;;17.47;;
29848;SDS011;16728;50.832;5.590;2024-01-15T00:39:30;36.40;;;18.67;;
29848;SDS011;16728;50.832;5.590;2024-01-15T00:42:32;39.30;;;18.90;;
29848;SDS011;16728;50.832;5.590;2024-01-15T00:45:35;40.42;;;19.38;;
29848;SDS011;16728;50.832;5.590;2024-01-15T00:48:37;34.77;;;18.23;;
29848;SDS011;16728;50.832;5.590;2024-01-15T00:51:40;36.58;;;19.10;;
29848;SDS011;16728;50.832;5.590;2024-01-15T00:54:43;40.42;;;19.25;;
29848;SDS011;16728;50.832;5.590;2024-01-15T00:57:45;38.60;;;19.33;;
29848;SDS011;16728;50.832;5.590;2024-01-15T01:00:47;41.63;;;18.95;;
29848;SDS011;16728;50.832;5.590;2024-01-15T01:03:50;41.20;;;18.55;;
29848;SDS011;16728;50.832;5.590;2024-01-15T01:06:52;40.25;;;20.02;;
29848;SDS011;16728;50.832;5.590;2024-01-15T01:09:55;38.33;;;18.63;;
29848;SDS011;16728;50.832;5.590;2024-01-15T01:12:57;41.83;;;19.53;;
29848;SDS011;16728;50.832;5.590;2024-01-15T01:15:59;38.03;;;17.43;;
29848;SDS011;16728;50.832;5.590;2024-01-15T01:19:02;40.27;;;18.93;;
29848;SDS011;16728;50.832;5.590;2024-01-15T01:22:04;45.58;;;20.27;;
29848;SDS011;16728;50.832;5.590;2024-01-15T01:25:07;40.57;;;19.40;;
29848;SDS011;16728;50.832;5.590;2024-01-15T01:28:10;39.97;;;19.55;;
29848;SDS011;16728;50.832;5.590;2024-01-15T01:31:12;46.05;;;19.90;;
29848;SDS011;16728;50.832;5.590;2024-01-15T01:34:15;42.65;;;19.88;;
29848;SDS011;16728;50.832;5.590;2024-01-15T01:37:18;42.20;;;18.60;;
29848;SDS011;16728;50.832;5.590;2024-01-15T01:40:20;41.20;;;19.65;;
29848;SDS011;16728;50.832;5.590;2024-01-15T01:43:22;37.43;;;17.63;;
29848;SDS011;16728;50.832;5.590;2024-01-15T01:46:25;37.72;;;18.88;;
29848;SDS011;16728;50.832;5.590;2024-01-15T01:49:29;37.20;;;18.38;;
29848;SDS011;16728;50.832;5.590;2024-01-15T01:52:31;28.50;;;14.13;;
29848;SDS011;16728;50.832;5.590;2024-01-15T01:55:33;41.63;;;18.97;;
29848;SDS011;16728;50.832;5.590;2024-01-15T01:58:36;37.88;;;18.95;;
29848;SDS011;16728;50.832;5.590;2024-01-15T02:04:59;38.72;;;18.33;;
29848;SDS011;16728;50.832;5.590;2024-01-15T02:08:02;38.95;;;17.83;;
29848;SDS011;16728;50.832;5.590;2024-01-15T02:11:05;35.00;;;17.50;;
29848;SDS011;16728;50.832;5.590;2024-01-15T02:14:07;37.17;;;17.15;;
29848;SDS011;16728;50.832;5.590;2024-01-15T02:17:10;34.65;;;16.73;;
29848;SDS011;16728;50.832;5.590;2024-01-15T02:20:13;31.08;;;15.52;;
29848;SDS011;16728;50.832;5.590;2024-01-15T02:23:15;34.27;;;16.67;;
29848;SDS011;16728;50.832;5.590;2024-01-15T02:26:17;31.50;;;16.23;;
29848;SDS011;16728;50.832;5.590;2024-01-15T02:29:20;30.10;;;16.53;;
29848;SDS011;16728;50.832;5.590;2024-01-15T02:32:22;33.90;;;16.43;;
29848;SDS011;16728;50.832;5.590;2024-01-15T02:35:24;33.47;;;16.97;;
29848;SDS011;16728;50.832;5.590;2024-01-15T02:38:26;31.08;;;16.75;;
29848;SDS011;16728;50.832;5.590;2024-01-15T02:41:29;29.52;;;16.05;;
29848;SDS011;16728;50.832;5.590;2024-01-15T02:44:31;30.60;;;16.08;;
29848;SDS011;16728;50.832;5.590;2024-01-15T02:47:33;21.83;;;11.57;;
29848;SDS011;16728;50.832;5.590;2024-01-15T02:50:35;30.37;;;14.90;;
29848;SDS011;16728;50.832;5.590;2024-01-15T02:53:38;31.00;;;15.27;;
29848;SDS011;16728;50.832;5.590;2024-01-15T02:56:40;26.90;;;14.82;;
29848;SDS011;16728;50.832;5.590;2024-01-15T02:59:43;22.58;;;10.77;;
29848;SDS011;16728;50.832;5.590;2024-01-15T03:02:45;26.55;;;14.35;;
29848;SDS011;16728;50.832;5.590;2024-01-15T03:05:49;26.52;;;14.68;;
29848;SDS011;16728;50.832;5.590;2024-01-15T03:08:51;26.08;;;15.55;;
29848;SDS011;16728;50.832;5.590;2024-01-15T03:11:54;25.70;;;14.57;;
29848;SDS011;16728;50.832;5.590;2024-01-15T03:14:56;26.55;;;14.88;;
29848;SDS011;16728;50.832;5.590;2024-01-15T03:17:58;24.35;;;13.68;;
29848;SDS011;16728;50.832;5.590;2024-01-15T03:21:00;28.20;;;15.17;;
29848;SDS011;16728;50.832;5.590;2024-01-15T03:24:02;23.77;;;10.93;;
29848;SDS011;16728;50.832;5.590;2024-01-15T03:27:05;25.20;;;14.43;;
29848;SDS011;16728;50.832;5.590;2024-01-15T03:30:07;28.97;;;14.23;;
29848;SDS011;16728;50.832;5.590;2024-01-15T03:33:10;23.20;;;13.52;;
29848;SDS011;16728;50.832;5.590;2024-01-15T03:36:17;25.83;;;14.83;;
29848;SDS011;16728;50.832;5.590;2024-01-15T03:39:20;25.13;;;14.05;;
29848;SDS011;16728;50.832;5.590;2024-01-15T03:42:22;26.02;;;13.30;;
29848;SDS011;16728;50.832;5.590;2024-01-15T03:45:25;18.87;;;10.17;;
29848;SDS011;16728;50.832;5.590;2024-01-15T03:48:27;26.67;;;14.73;;
29848;SDS011;16728;50.832;5.590;2024-01-15T03:51:29;25.85;;;13.30;;
29848;SDS011;16728;50.832;5.590;2024-01-15T03:54:32;24.37;;;13.33;;
29848;SDS011;16728;50.832;5.590;2024-01-15T03:57:34;26.17;;;13.87;;
29848;SDS011;16728;50.832;5.590;2024-01-15T04:00:36;26.17;;;13.80;;
29848;SDS011;16728;50.832;5.590;2024-01-15T04:03:39;24.42;;;13.57;;
29848;SDS011;16728;50.832;5.590;2024-01-15T04:06:41;24.60;;;13.67;;
29848;SDS011;16728;50.832;5.590;2024-01-15T04:09:43;21.73;;;12.80;;
29848;SDS011;16728;50.832;5.590;2024-01-15T04:12:46;25.57;;;12.80;;
29848;SDS011;16728;50.832;5.590;2024-01-15T04:15:48;23.77;;;12.67;;
29848;SDS011;16728;50.832;5.590;2024-01-15T04:18:50;19.77;;;11.83;;
29848;SDS011;16728;50.832;5.590;2024-01-15T04:21:53;20.43;;;12.07;;
29848;SDS011;16728;50.832;5.590;2024-01-15T04:24:55;25.25;;;11.90;;
29848;SDS011;16728;50.832;5.590;2024-01-15T04:27:57;17.40;;;8.93;;
29848;SDS011;16728;50.832;5.590;2024-01-15T04:31:00;19.58;;;11.65;;
29848;SDS011;16728;50.832;5.590;2024-01-15T04:34:02;19.73;;;11.47;;
29848;SDS011;16728;50.832;5.590;2024-01-15T04:37:05;23.10;;;11.80;;
29848;SDS011;16728;50.832;5.590;2024-01-15T04:40:07;20.73;;;12.10;;
29848;SDS011;16728;50.832;5.590;2024-01-15T04:43:10;23.13;;;12.00;;
29848;SDS011;16728;50.832;5.590;2024-01-15T04:46:13;21.33;;;11.48;;
29848;SDS011;16728;50.832;5.590;2024-01-15T04:49:15;18.07;;;11.13;;
29848;SDS011;16728;50.832;5.590;2024-01-15T04:52:18;19.25;;;12.15;;
29848;SDS011;16728;50.832;5.590;2024-01-15T04:55:20;17.17;;;10.73;;
29848;SDS011;16728;50.832;5.590;2024-01-15T04:58:22;18.17;;;11.20;;
29848;SDS011;16728;50.832;5.590;2024-01-15T05:01:30;20.52;;;12.02;;
29848;SDS011;16728;50.832;5.590;2024-01-15T05:04:33;25.60;;;13.00;;
29848;SDS011;16728;50.832;5.590;2024-01-15T05:07:37;22.48;;;13.00;;
29848;SDS011;16728;50.832;5.590;2024-01-15T05:10:39;22.58;;;12.30;;
29848;SDS011;16728;50.832;5.590;2024-01-15T05:13:41;22.85;;;12.38;;
29848;SDS011;16728;50.832;5.590;2024-01-15T05:16:47;26.63;;;14.13;;
29848;SDS011;16728;50.832;5.590;2024-01-15T05:19:50;27.35;;;14.55;;
29848;SDS011;16728;50.832;5.590;2024-01-15T05:22:52;28.33;;;14.88;;
29848;SDS011;16728;50.832;5.590;2024-01-15T05:25:55;20.10;;;10.93;;
29848;SDS011;16728;50.832;5.590;2024-01-15T05:28:57;19.03;;;10.67;;
29848;SDS011;16728;50.832;5.590;2024-01-15T05:31:59;22.95;;;14.38;;
29848;SDS011;16728;50.832;5.590;2024-01-15T05:35:03;32.28;;;14.70;;
29848;SDS011;16728;50.832;5.590;2024-01-15T05:38:05;26.73;;;14.13;;
29848;SDS011;16728;50.832;5.590;2024-01-15T05:41:07;31.80;;;14.10;;
29848;SDS011;16728;50.832;5.590;2024-01-15T05:44:10;27.35;;;16.15;;
29848;SDS011;16728;50.832;5.590;2024-01-15T05:47:12;29.77;;;15.93;;
29848;SDS011;16728;50.832;5.590;2024-01-15T05:50:14;31.23;;;15.80;;
29848;SDS011;16728;50.832;5.590;2024-01-15T05:53:16;28.67;;;16.47;;
29848;SDS011;16728;50.832;5.590;2024-01-15T05:56:19;32.10;;;16.45;;
29848;SDS011;16728;50.832;5.590;2024-01-15T05:59:21;31.92;;;18.27;;
29848;SDS011;16728;50.832;5.590;2024-01-15T06:02:23;27.70;;;16.55;;
29848;SDS011;16728;50.832;5.590;2024-01-15T06:05:26;20.70;;;12.93;;
29848;SDS011;16728;50.832;5.590;2024-01-15T06:08:28;37.53;;;18.10;;
29848;SDS011;16728;50.832;5.590;2024-01-15T06:11:33;31.92;;;16.85;;
29848;SDS011;16728;50.832;5.590;2024-01-15T06:14:35;30.42;;;16.90;;
29848;SDS011;16728;50.832;5.590;2024-01-15T06:17:38;33.47;;;17.80;;
29848;SDS011;16728;50.832;5.590;2024-01-15T06:20:40;29.63;;;17.42;;
29848;SDS011;16728;50.832;5.590;2024-01-15T06:23:43;28.73;;;17.05;;
29848;SDS011;16728;50.832;5.590;2024-01-15T06:26:48;29.67;;;18.05;;
29848;SDS011;16728;50.832;5.590;2024-01-15T06:29:51;28.80;;;17.38;;
29848;SDS011;16728;50.832;5.590;2024-01-15T06:32:54;30.02;;;16.73;;
29848;SDS011;16728;50.832;5.590;2024-01-15T06:35:57;34.22;;;17.05;;
29848;SDS011;16728;50.832;5.590;2024-01-15T06:38:59;31.60;;;17.77;;
29848;SDS011;16728;50.832;5.590;2024-01-15T06:42:01;29.60;;;15.93;;
29848;SDS011;16728;50.832;5.590;2024-01-15T06:45:04;27.83;;;16.33;;
29848;SDS011;16728;50.832;5.590;2024-01-15T06:48:06;26.85;;;15.60;;
29848;SDS011;16728;50.832;5.590;2024-01-15T06:51:09;25.02;;;14.65;;
29848;SDS011;16728;50.832;5.590;2024-01-15T06:54:11;23.20;;;14.80;;
29848;SDS011;16728;50.832;5.590;2024-01-15T06:57:13;27.77;;;14.68;;
29848;SDS011;16728;50.832;5.590;2024-01-15T07:00:16;28.77;;;14.73;;
29848;SDS011;16728;50.832;5.590;2024-01-15T07:03:18;22.30;;;12.80;;
29848;SDS011;16728;50.832;5.590;2024-01-15T07:06:21;20.97;;;12.07;;
29848;SDS011;16728;50.832;5.590;2024-01-15T07:09:23;13.93;;;8.87;;
29848;SDS011;16728;50.832;5.590;2024-01-15T07:12:25;18.33;;;10.37;;
29848;SDS011;16728;50.832;5.590;2024-01-15T07:15:27;20.05;;;10.10;;
29848;SDS011;16728;50.832;5.590;2024-01-15T07:18:30;14.93;;;9.00;;
29848;SDS011;16728;50.832;5.590;2024-01-15T07:21:33;15.25;;;9.25;;
29848;SDS011;16728;50.832;5.590;2024-01-15T07:24:35;14.05;;;8.48;;
29848;SDS011;16728;50.832;5.590;2024-01-15T07:27:38;15.33;;;8.37;;
29848;SDS011;16728;50.832;5.590;2024-01-15T07:30:41;13.68;;;8.35;;
29848;SDS011;16728;50.832;5.590;2024-01-15T07:33:43;15.23;;;8.30;;
29848;SDS011;16728;50.832;5.590;2024-01-15T07:36:46;12.82;;;7.95;;
29848;SDS011;16728;50.832;5.590;2024-01-15T07:39:48;12.73;;;7.67;;
29848;SDS011;16728;50.832;5.590;2024-01-15T07:42:51;13.48;;;8.25;;
29848;SDS011;16728;50.832;5.590;2024-01-15T07:45:53;13.52;;;8.70;;
29848;SDS011;16728;50.832;5.590;2024-01-15T07:48:56;16.42;;;8.52;;
29848;SDS011;16728;50.832;5.590;2024-01-15T07:51:59;15.27;;;8.80;;
29848;SDS011;16728;50.832;5.590;2024-01-15T07:55:01;10.87;;;7.73;;
29848;SDS011;16728;50.832;5.590;2024-01-15T07:58:06;14.18;;;8.38;;
29848;SDS011;16728;50.832;5.590;2024-01-15T08:01:17;17.13;;;8.52;;
29848;SDS011;16728;50.832;5.590;2024-01-15T08:04:19;11.53;;;7.73;;
29848;SDS011;16728;50.832;5.590;2024-01-15T08:07:23;10.85;;;6.65;;
29848;SDS011;16728;50.832;5.590;2024-01-15T08:10:25;11.60;;;7.03;;
29848;SDS011;16728;50.832;5.590;2024-01-15T08:13:28;9.13;;;5.20;;
29848;SDS011;16728;50.832;5.590;2024-01-15T08:16:30;12.77;;;7.17;;
29848;SDS011;16728;50.832;5.590;2024-01-15T08:19:32;13.20;;;6.15;;
29848;SDS011;16728;50.832;5.590;2024-01-15T08:22:35;8.93;;;4.30;;
29848;SDS011;16728;50.832;5.590;2024-01-15T08:25:38;13.13;;;5.90;;
29848;SDS011;16728;50.832;5.590;2024-01-15T08:28:40;8.50;;;4.97;;
29848;SDS011;16728;50.832;5.590;2024-01-15T08:31:42;9.33;;;4.83;;
29848;SDS011;16728;50.832;5.590;2024-01-15T08:34:45;8.63;;;4.05;;
29848;SDS011;16728;50.832;5.590;2024-01-15T08:37:49;7.93;;;4.45;;
29848;SDS011;16728;50.832;5.590;2024-01-15T08:40:51;8.98;;;5.30;;
29848;SDS011;16728;50.832;5.590;2024-01-15T08:46:56;10.45;;;4.25;;
29848;SDS011;16728;50.832;5.590;2024-01-15T08:49:59;7.83;;;4.73;;
29848;SDS011;16728;50.832;5.590;2024-01-15T08:53:01;10.30;;;4.60;;
29848;SDS011;16728;50.832;5.590;2024-01-15T08:59:07;9.65;;;4.28;;
29848;SDS011;16728;50.832;5.590;2024-01-15T09:02:09;6.80;;;4.18;;
29848;SDS011;16728;50.832;5.590;2024-01-15T09:05:11;9.77;;;4.27;;
29848;SDS011;16728;50.832;5.590;2024-01-15T09:08:14;9.75;;;4.47;;
29848;SDS011;16728;50.832;5.590;2024-01-15T09:11:16;8.70;;;4.90;;
29848;SDS011;16728;50.832;5.590;2024-01-15T09:14:18;8.68;;;4.88;;
29848;SDS011;16728;50.832;5.590;2024-01-15T09:17:37;9.93;;;5.03;;
29848;SDS011;16728;50.832;5.590;2024-01-15T09:20:39;11.27;;;5.72;;
29848;SDS011;16728;50.832;5.590;2024-01-15T09:23:42;14.87;;;6.07;;
29848;SDS011;16728;50.832;5.590;2024-01-15T09:26:44;12.48;;;5.72;;
29848;SDS011;16728;50.832;5.590;2024-01-15T09:29:46;13.50;;;5.70;;
29848;SDS011;16728;50.832;5.590;2024-01-15T09:32:49;11.63;;;6.38;;
29848;SDS011;16728;50.832;5.590;2024-01-15T09:35:51;9.57;;;5.50;;
29848;SDS011;16728;50.832;5.590;2024-01-15T09:38:53;12.02;;;6.53;;
29848;SDS011;16728;50.832;5.590;2024-01-15T09:41:56;9.30;;;6.10;;
29848;SDS011;16728;50.832;5.590;2024-01-15T09:44:58;19.90;;;7.80;;
29848;SDS011;16728;50.832;5.590;2024-01-15T09:48:01;9.23;;;7.10;;
29848;SDS011;16728;50.832;5.590;2024-01-15T09:51:03;10.85;;;6.95;;
29848;SDS011;16728;50.832;5.590;2024-01-15T09:54:06;13.48;;;7.00;;
29848;SDS011;16728;50.832;5.590;2024-01-15T10:00:12;14.10;;;7.10;;
29848;SDS011;16728;50.832;5.590;2024-01-15T10:03:14;11.80;;;6.72;;
29848;SDS011;16728;50.832;5.590;2024-01-15T10:06:17;9.18;;;6.40;;
29848;SDS011;16728;50.832;5.590;2024-01-15T10:09:23;10.60;;;6.35;;
29848;SDS011;16728;50.832;5.590;2024-01-15T10:12:25;7.35;;;4.55;;
29848;SDS011;16728;50.832;5.590;2024-01-15T10:15:33;10.00;;;5.70;;
29848;SDS011;16728;50.832;5.590;2024-01-15T10:18:38;12.55;;;5.93;;
29848;SDS011;16728;50.832;5.590;2024-01-15T10:21:41;14.63;;;6.50;;
29848;SDS011;16728;50.832;5.590;2024-01-15T10:24:44;10.68;;;5.65;;
29848;SDS011;16728;50.832;5.590;2024-01-15T10:27:51;10.85;;;5.45;;
29848;SDS011;16728;50.832;5.590;2024-01-15T10:31:01;8.00;;;4.57;;
29848;SDS011;16728;50.832;5.590;2024-01-15T10:34:13;7.65;;;4.53;;
29848;SDS011;16728;50.832;5.590;2024-01-15T10:37:17;17.30;;;5.18;;
29848;SDS011;16728;50.832;5.590;2024-01-15T10:40:19;11.35;;;4.22;;
29848;SDS011;16728;50.832;5.590;2024-01-15T10:43:24;11.10;;;4.95;;
29848;SDS011;16728;50.832;5.590;2024-01-15T10:46:29;10.70;;;4.63;;
29848;SDS011;16728;50.832;5.590;2024-01-15T10:49:32;10.15;;;4.65;;
29848;SDS011;16728;50.832;5.590;2024-01-15T10:52:35;8.68;;;4.03;;
29848;SDS011;16728;50.832;5.590;2024-01-15T10:55:38;7.28;;;4.40;;
29848;SDS011;16728;50.832;5.590;2024-01-15T10:58:43;8.32;;;3.40;;
29848;SDS011;16728;50.832;5.590;2024-01-15T11:01:46;9.43;;;4.10;;
29848;SDS011;16728;50.832;5.590;2024-01-15T11:04:48;7.35;;;3.67;;
29848;SDS011;16728;50.832;5.590;2024-01-15T11:07:55;9.77;;;4.15;;
29848;SDS011;16728;50.832;5.590;2024-01-15T11:10:57;9.93;;;3.80;;
29848;SDS011;16728;50.832;5.590;2024-01-15T11:14:00;10.73;;;3.50;;
29848;SDS011;16728;50.832;5.590;2024-01-15T11:17:02;9.30;;;3.55;;
29848;SDS011;16728;50.832;5.590;2024-01-15T11:20:05;8.52;;;3.58;;
29848;SDS011;16728;50.832;5.590;2024-01-15T11:23:09;11.90;;;2.90;;
29848;SDS011;16728;50.832;5.590;2024-01-15T11:29:36;9.75;;;2.80;;
29848;SDS011;16728;50.832;5.590;2024-01-15T11:32:38;11.18;;;2.83;;
29848;SDS011;16728;50.832;5.590;2024-01-15T11:35:48;8.10;;;2.97;;
29848;SDS011;16728;50.832;5.590;2024-01-15T11:38:51;9.75;;;2.47;;
29848;SDS011;16728;50.832;5.590;2024-01-15T11:41:57;6.45;;;2.50;;
29848;SDS011;16728;50.832;5.590;2024-01-15T11:44:59;4.57;;;2.53;;
29848;SDS011;16728;50.832;5.590;2024-01-15T11:48:09;5.90;;;2.03;;
29848;SDS011;16728;50.832;5.590;2024-01-15T11:51:13;7.93;;;2.28;;
29848;SDS011;16728;50.832;5.590;2024-01-15T11:54:19;11.25;;;2.42;;
29848;SDS011;16728;50.832;5.590;2024-01-15T12:00:24;5.65;;;2.17;;
29848;SDS011;16728;50.832;5.590;2024-01-15T12:03:27;7.37;;;2.37;;
29848;SDS011;16728;50.832;5.590;2024-01-15T12:06:29;5.07;;;1.83;;
29848;SDS011;16728;50.832;5.590;2024-01-15T12:09:31;14.40;;;2.20;;
29848;SDS011;16728;50.832;5.590;2024-01-15T12:12:37;4.20;;;1.57;;
29848;SDS011;16728;50.832;5.590;2024-01-15T12:15:41;7.28;;;3.00;;
29848;SDS011;16728;50.832;5.590;2024-01-15T12:18:45;8.35;;;2.25;;
29848;SDS011;16728;50.832;5.590;2024-01-15T12:21:47;85.50;;;55.03;;
29848;SDS011;16728;50.832;5.590;2024-01-15T12:24:50;9.33;;;5.27;;
29848;SDS011;16728;50.832;5.590;2024-01-15T12:27:52;7.90;;;2.20;;
29848;SDS011;16728;50.832;5.590;2024-01-15T12:30:56;7.10;;;2.53;;
29848;SDS011;16728;50.832;5.590;2024-01-15T12:34:01;6.85;;;3.08;;
29848;SDS011;16728;50.832;5.590;2024-01-15T12:37:03;12.80;;;3.75;;
29848;SDS011;16728;50.832;5.590;2024-01-15T12:40:06;9.93;;;3.42;;
29848;SDS011;16728;50.832;5.590;2024-01-15T12:43:10;7.25;;;3.42;;
29848;SDS011;16728;50.832;5.590;2024-01-15T12:46:13;7.45;;;3.50;;
29848;SDS011;16728;50.832;5.590;2024-01-15T12:49:17;12.20;;;4.50;;
29848;SDS011;16728;50.832;5.590;2024-01-15T12:52:19;6.43;;;3.33;;
29848;SDS011;16728;50.832;5.590;2024-01-15T12:55:25;5.60;;;2.80;;
29848;SDS011;16728;50.832;5.590;2024-01-15T12:58:27;4.63;;;3.00;;
29848;SDS011;16728;50.832;5.590;2024-01-15T13:01:29;4.07;;;2.90;;
29848;SDS011;16728;50.832;5.590;2024-01-15T13:04:31;4.77;;;2.80;;
29848;SDS011;16728;50.832;5.590;2024-01-15T13:07:34;5.28;;;2.80;;
29848;SDS011;16728;50.832;5.590;2024-01-15T13:10:36;2.67;;;2.43;;
29848;SDS011;16728;50.832;5.590;2024-01-15T13:13:38;4.25;;;2.83;;
29848;SDS011;16728;50.832;5.590;2024-01-15T13:16:41;3.97;;;2.70;;
29848;SDS011;16728;50.832;5.590;2024-01-15T13:19:43;5.63;;;2.85;;
29848;SDS011;16728;50.832;5.590;2024-01-15T13:22:46;7.97;;;3.33;;
29848;SDS011;16728;50.832;5.590;2024-01-15T13:25:48;5.22;;;2.67;;
29848;SDS011;16728;50.832;5.590;2024-01-15T13:28:51;7.57;;;3.28;;
29848;SDS011;16728;50.832;5.590;2024-01-15T13:31:54;7.13;;;2.70;;
29848;SDS011;16728;50.832;5.590;2024-01-15T13:34:56;9.10;;;4.95;;
29848;SDS011;16728;50.832;5.590;2024-01-15T13:37:59;8.80;;;5.00;;
29848;SDS011;16728;50.832;5.590;2024-01-15T13:41:01;2.93;;;2.63;;
29848;SDS011;16728;50.832;5.590;2024-01-15T13:44:04;7.03;;;2.40;;
29848;SDS011;16728;50.832;5.590;2024-01-15T13:47:06;4.00;;;2.47;;
29848;SDS011;16728;50.832;5.590;2024-01-15T13:50:09;3.78;;;2.13;;
29848;SDS011;16728;50.832;5.590;2024-01-15T13:53:11;3.22;;;2.22;;
29848;SDS011;16728;50.832;5.590;2024-01-15T13:56:14;2.50;;;2.30;;
29848;SDS011;16728;50.832;5.590;2024-01-15T13:59:20;3.95;;;2.22;;
29848;SDS011;16728;50.832;5.590;2024-01-15T14:02:22;2.87;;;2.30;;
29848;SDS011;16728;50.832;5.590;2024-01-15T14:05:26;3.38;;;2.20;;
29848;SDS011;16728;50.832;5.590;2024-01-15T14:08:28;6.50;;;2.35;;
29848;SDS011;16728;50.832;5.590;2024-01-15T14:11:31;5.33;;;2.10;;
29848;SDS011;16728;50.832;5.590;2024-01-15T14:14:33;4.43;;;2.28;;
29848;SDS011;16728;50.832;5.590;2024-01-15T14:17:38;3.33;;;2.20;;
29848;SDS011;16728;50.832;5.590;2024-01-15T14:20:40;2.13;;;1.97;;
29848;SDS011;16728;50.832;5.590;2024-01-15T14:23:43;2.20;;;1.98;;
29848;SDS011;16728;50.832;5.590;2024-01-15T14:26:45;2.65;;;2.17;;
29848;SDS011;16728;50.832;5.590;2024-01-15T14:29:47;3.57;;;1.87;;
29848;SDS011;16728;50.832;5.590;2024-01-15T14:32:49;2.95;;;2.10;;
29848;SDS011;16728;50.832;5.590;2024-01-15T14:35:52;3.50;;;1.80;;
29848;SDS011;16728;50.832;5.590;2024-01-15T14:38:54;4.95;;;2.45;;
29848;SDS011;16728;50.832;5.590;2024-01-15T14:41:57;3.58;;;2.05;;
29848;SDS011;16728;50.832;5.590;2024-01-15T14:44:59;2.60;;;1.90;;
29848;SDS011;16728;50.832;5.590;2024-01-15T14:48:02;2.08;;;1.73;;
29848;SDS011;16728;50.832;5.590;2024-01-15T14:51:05;5.22;;;1.63;;
29848;SDS011;16728;50.832;5.590;2024-01-15T14:54:08;1.75;;;1.65;;
29848;SDS011;16728;50.832;5.590;2024-01-15T14:57:10;2.57;;;1.70;;
29848;SDS011;16728;50.832;5.590;2024-01-15T15:00:12;4.73;;;1.97;;
29848;SDS011;16728;50.832;5.590;2024-01-15T15:03:15;2.50;;;1.98;;
29848;SDS011;16728;50.832;5.590;2024-01-15T15:06:17;3.90;;;1.88;;
29848;SDS011;16728;50.832;5.590;2024-01-15T15:09:20;2.70;;;1.93;;
29848;SDS011;16728;50.832;5.590;2024-01-15T15:12:22;4.05;;;2.10;;
29848;SDS011;16728;50.832;5.590;2024-01-15T15:15:24;6.93;;;2.00;;
29848;SDS011;16728;50.832;5.590;2024-01-15T15:18:27;3.08;;;2.03;;
29848;SDS011;16728;50.832;5.590;2024-01-15T15:21:31;2.22;;;1.95;;
29848;SDS011;16728;50.832;5.590;2024-01-15T15:24:34;3.78;;;2.55;;
29848;SDS011;16728;50.832;5.590;2024-01-15T15:27:36;3.57;;;2.67;;
29848;SDS011;16728;50.832;5.590;2024-01-15T15:30:38;3.20;;;2.90;;
29848;SDS011;16728;50.832;5.590;2024-01-15T15:33:40;3.28;;;2.65;;
29848;SDS011;16728;50.832;5.590;2024-01-15T15:36:43;3.67;;;2.50;;
29848;SDS011;16728;50.832;5.590;2024-01-15T15:39:45;8.10;;;5.40;;
29848;SDS011;16728;50.832;5.590;2024-01-15T15:42:48;7.15;;;4.25;;
29848;SDS011;16728;50.832;5.590;2024-01-15T15:45:50;3.20;;;2.90;;
29848;SDS011;16728;50.832;5.590;2024-01-15T15:48:53;5.75;;;2.95;;
29848;SDS011;16728;50.832;5.590;2024-01-15T15:51:55;4.75;;;3.10;;
29848;SDS011;16728;50.832;5.590;2024-01-15T15:54:58;8.00;;;3.03;;
29848;SDS011;16728;50.832;5.590;2024-01-15T15:58:03;4.50;;;3.75;;
29848;SDS011;16728;50.832;5.590;2024-01-15T16:01:05;5.43;;;4.28;;
29848;SDS011;16728;50.832;5.590;2024-01-15T16:04:08;8.55;;;5.72;;
29848;SDS011;16728;50.832;5.590;2024-01-15T16:07:10;7.03;;;3.78;;
29848;SDS011;16728;50.832;5.590;2024-01-15T16:10:13;5.32;;;4.05;;
29848;SDS011;16728;50.832;5.590;2024-01-15T16:13:16;5.97;;;4.22;;
29848;SDS011;16728;50.832;5.590;2024-01-15T16:16:18;4.10;;;3.28;;
29848;SDS011;16728;50.832;5.590;2024-01-15T16:19:40;4.60;;;2.75;;
29848;SDS011;16728;50.832;5.590;2024-01-15T16:23:02;3.25;;;2.22;;
29848;SDS011;16728;50.832;5.590;2024-01-15T16:26:25;8.88;;;3.45;;
29848;SDS011;16728;50.832;5.590;2024-01-15T16:29:34;3.40;;;2.10;;
29848;SDS011;16728;50.832;5.590;2024-01-15T16:32:36;3.15;;;2.75;;
29848;SDS011;16728;50.832;5.590;2024-01-15T16:35:39;5.22;;;3.13;;
29848;SDS011;16728;50.832;5.590;2024-01-15T16:38:41;4.35;;;2.60;;
29848;SDS011;16728;50.832;5.590;2024-01-15T16:41:44;6.78;;;3.03;;
29848;SDS011;16728;50.832;5.590;2024-01-15T16:44:46;4.23;;;2.40;;
29848;SDS011;16728;50.832;5.590;2024-01-15T16:47:49;4.57;;;2.23;;
29848;SDS011;16728;50.832;5.590;2024-01-15T16:50:51;4.18;;;2.70;;
29848;SDS011;16728;50.832;5.590;2024-01-15T16:53:55;3.83;;;2.78;;
29848;SDS011;16728;50.832;5.590;2024-01-15T16:56:57;2.97;;;2.03;;
29848;SDS011;16728;50.832;5.590;2024-01-15T16:59:59;3.60;;;2.55;;
29848;SDS011;16728;50.832;5.590;2024-01-15T17:03:01;3.20;;;2.90;;
29848;SDS011;16728;50.832;5.590;2024-01-15T17:06:04;7.28;;;4.18;;
29848;SDS011;16728;50.832;5.590;2024-01-15T17:09:06;6.00;;;4.10;;
29848;SDS011;16728;50.832;5.590;2024-01-15T17:12:09;6.33;;;4.53;;
29848;SDS011;16728;50.832;5.590;2024-01-15T17:15:11;5.73;;;3.53;;
29848;SDS011;16728;50.832;5.590;2024-01-15T17:18:13;6.70;;;4.38;;
29848;SDS011;16728;50.832;5.590;2024-01-15T17:21:16;7.05;;;4.50;;
29848;SDS011;16728;50.832;5.590;2024-01-15T17:24:18;6.63;;;4.77;;
29848;SDS011;16728;50.832;5.590;2024-01-15T17:27:20;6.70;;;4.20;;
29848;SDS011;16728;50.832;5.590;2024-01-15T17:30:23;9.05;;;4.55;;
29848;SDS011;16728;50.832;5.590;2024-01-15T17:33:25;5.67;;;3.73;;
29848;SDS011;16728;50.832;5.590;2024-01-15T17:36:28;9.68;;;6.18;;
29848;SDS011;16728;50.832;5.590;2024-01-15T17:39:30;10.23;;;7.43;;
29848;SDS011;16728;50.832;5.590;2024-01-15T17:42:32;14.87;;;10.47;;
29848;SDS011;16728;50.832;5.590;2024-01-15T17:45:35;10.07;;;8.00;;
29848;SDS011;16728;50.832;5.590;2024-01-15T17:48:39;11.95;;;7.68;;
29848;SDS011;16728;50.832;5.590;2024-01-15T17:51:41;9.57;;;6.95;;
29848;SDS011;16728;50.832;5.590;2024-01-15T17:54:43;11.32;;;7.07;;
29848;SDS011;16728;50.832;5.590;2024-01-15T17:57:45;7.60;;;4.97;;
29848;SDS011;16728;50.832;5.590;2024-01-15T18:00:48;9.07;;;5.53;;
29848;SDS011;16728;50.832;5.590;2024-01-15T18:03:50;8.20;;;4.97;;
29848;SDS011;16728;50.832;5.590;2024-01-15T18:06:53;5.70;;;4.70;;
29848;SDS011;16728;50.832;5.590;2024-01-15T18:12:59;6.97;;;4.22;;
29848;SDS011;16728;50.832;5.590;2024-01-15T18:16:01;9.30;;;4.20;;
29848;SDS011;16728;50.832;5.590;2024-01-15T18:19:04;6.68;;;4.35;;
29848;SDS011;16728;50.832;5.590;2024-01-15T18:22:06;4.90;;;3.43;;
29848;SDS011;16728;50.832;5.590;2024-01-15T18:25:09;7.35;;;3.83;;
29848;SDS011;16728;50.832;5.590;2024-01-15T18:28:11;10.30;;;4.20;;
29848;SDS011;16728;50.832;5.590;2024-01-15T18:31:15;14.93;;;6.40;;